createdAt,value
2023-02-24T00:00:10.526Z,4.79
2023-02-24T00:01:10.311Z,4.75
2023-02-24T00:02:10.729Z,4.76
2023-02-24T00:03:12.010Z,4.75
2023-02-24T00:04:11.047Z,4.75
2023-02-24T00:05:12.252Z,4.72
2023-02-24T00:06:12.434Z,4.69
2023-02-24T00:07:11.659Z,4.70
2023-02-24T00:08:12.065Z,4.69
2023-02-24T00:09:12.528Z,4.72
2023-02-24T00:10:12.360Z,4.75
2023-02-24T00:11:13.788Z,4.77
2023-02-24T00:12:13.454Z,4.77
2023-02-24T00:13:13.636Z,4.79
2023-02-24T00:14:13.752Z,4.79
2023-02-24T00:15:16.269Z,4.77
2023-02-24T00:16:17.045Z,4.80
2023-02-24T00:17:15.852Z,4.83
2023-02-24T00:18:15.497Z,4.84
2023-02-24T00:19:15.302Z,4.84
2023-02-24T00:20:15.307Z,4.86
2023-02-24T00:21:16.228Z,4.89
2023-02-24T00:22:16.528Z,4.89
2023-02-24T00:23:16.492Z,4.88
2023-02-24T00:24:16.612Z,4.88
2023-02-24T00:25:16.866Z,4.84
2023-02-24T00:26:17.552Z,4.83
2023-02-24T00:27:17.065Z,4.80
2023-02-24T00:28:16.985Z,4.83
2023-02-24T00:29:17.835Z,4.83
2023-02-24T00:30:17.809Z,4.79
2023-02-24T00:31:19.116Z,4.77
2023-02-24T00:32:18.012Z,4.73
2023-02-24T00:33:18.386Z,4.73
2023-02-24T00:34:20.386Z,4.73
2023-02-24T00:35:19.162Z,4.72
2023-02-24T00:36:19.826Z,4.67
2023-02-24T00:37:19.398Z,4.64
2023-02-24T00:38:21.524Z,4.62
2023-02-24T00:39:20.675Z,4.61
2023-02-24T00:40:20.407Z,4.59
2023-02-24T00:41:21.177Z,4.62
2023-02-24T00:42:21.658Z,4.64
2023-02-24T00:43:21.427Z,4.62
2023-02-24T00:44:21.619Z,4.62
2023-02-24T00:45:21.527Z,4.65
2023-02-24T00:46:22.238Z,4.67
2023-02-24T00:47:24.498Z,4.67
2023-02-24T00:48:22.718Z,4.70
2023-02-24T00:49:23.080Z,4.70
2023-02-24T00:50:23.453Z,4.73
2023-02-24T00:51:23.473Z,4.73
2023-02-24T00:52:23.319Z,4.72
2023-02-24T00:53:23.888Z,4.72
2023-02-24T00:54:23.730Z,4.69
2023-02-24T00:55:24.488Z,4.65
2023-02-24T00:56:24.212Z,4.62
2023-02-24T00:57:25.020Z,4.61
2023-02-24T00:58:25.194Z,4.62
2023-02-24T00:59:25.672Z,4.61
2023-02-24T01:00:25.695Z,4.61
2023-02-24T01:01:26.866Z,4.62
2023-02-24T01:02:25.964Z,4.65
2023-02-24T01:03:26.587Z,4.65
2023-02-24T01:04:26.152Z,4.64
2023-02-24T01:05:27.705Z,4.64
2023-02-24T01:06:28.355Z,4.62
2023-02-24T01:07:27.204Z,4.58
2023-02-24T01:08:29.118Z,4.54
2023-02-24T01:09:28.917Z,4.52
2023-02-24T01:10:28.404Z,4.57
2023-02-24T01:11:28.063Z,4.55
2023-02-24T01:12:28.289Z,4.58
2023-02-24T01:13:30.096Z,4.57
2023-02-24T01:14:29.193Z,4.57
2023-02-24T01:15:29.030Z,4.57
2023-02-24T01:16:29.829Z,4.58
2023-02-24T01:17:29.746Z,4.58
2023-02-24T01:18:29.845Z,4.55
2023-02-24T01:19:29.826Z,4.51
2023-02-24T01:21:26.750Z,4.44
2023-02-24T01:22:27.006Z,4.44
2023-02-24T01:23:28.056Z,4.47
2023-02-24T01:24:26.996Z,4.47
2023-02-24T01:25:27.279Z,4.47
2023-02-24T01:26:27.143Z,4.50
2023-02-24T01:27:27.310Z,4.50
2023-02-24T01:28:27.356Z,4.52
2023-02-24T01:29:29.742Z,4.51
2023-02-24T01:30:27.938Z,4.51
2023-02-24T01:31:28.936Z,4.51
2023-02-24T01:32:30.521Z,4.51
2023-02-24T01:33:28.472Z,4.51
2023-02-24T01:34:28.598Z,4.51
2023-02-24T01:35:29.073Z,4.47
2023-02-24T01:36:29.165Z,4.46
2023-02-24T01:37:29.452Z,4.42
2023-02-24T01:38:29.695Z,4.40
2023-02-24T01:39:29.739Z,4.37
2023-02-24T01:40:30.979Z,4.40
2023-02-24T01:41:30.219Z,4.43
2023-02-24T01:42:30.377Z,4.44
2023-02-24T01:43:30.950Z,4.42
2023-02-24T01:44:30.431Z,4.37
2023-02-24T01:45:30.931Z,4.37
2023-02-24T01:46:30.880Z,4.37
2023-02-24T01:47:31.568Z,4.40
2023-02-24T01:48:31.679Z,4.39
2023-02-24T01:49:32.335Z,4.39
2023-02-24T01:50:32.401Z,4.39
2023-02-24T01:51:32.475Z,4.39
2023-02-24T01:52:32.647Z,4.40
2023-02-24T01:53:32.569Z,4.40
2023-02-24T01:54:33.600Z,4.39
2023-02-24T01:55:33.226Z,4.37
2023-02-24T01:56:33.516Z,4.39
2023-02-24T01:57:34.163Z,4.39
2023-02-24T01:58:34.472Z,4.42
2023-02-24T01:59:34.369Z,4.44
2023-02-24T02:00:34.441Z,4.44
2023-02-24T02:01:35.307Z,4.42
2023-02-24T02:02:35.084Z,4.39
2023-02-24T02:03:34.825Z,4.39
2023-02-24T02:04:35.344Z,4.40
2023-02-24T02:05:35.515Z,4.37
2023-02-24T02:06:38.502Z,4.37
2023-02-24T02:07:36.155Z,4.37
2023-02-24T02:08:36.437Z,4.37
2023-02-24T02:09:36.890Z,4.36
2023-02-24T02:10:37.271Z,4.37
2023-02-24T02:11:36.739Z,4.40
2023-02-24T02:12:37.790Z,4.42
2023-02-24T02:13:39.016Z,4.42
2023-02-24T02:14:37.715Z,4.43
2023-02-24T02:15:38.398Z,4.44
2023-02-24T02:16:38.645Z,4.46
2023-02-24T02:17:38.435Z,4.50
2023-02-24T02:18:39.121Z,4.46
2023-02-24T02:19:39.022Z,4.44
2023-02-24T02:20:39.698Z,4.44
2023-02-24T02:21:39.370Z,4.42
2023-02-24T02:22:39.453Z,4.44
2023-02-24T02:23:39.679Z,4.47
2023-02-24T02:24:39.650Z,4.46
2023-02-24T02:25:40.082Z,4.43
2023-02-24T02:26:40.646Z,4.44
2023-02-24T02:27:41.104Z,4.47
2023-02-24T02:28:41.248Z,4.47
2023-02-24T02:29:40.812Z,4.51
2023-02-24T02:30:40.931Z,4.51
2023-02-24T02:31:41.578Z,4.52
2023-02-24T02:32:41.433Z,4.52
2023-02-24T02:33:41.814Z,4.51
2023-02-24T02:34:42.996Z,4.50
2023-02-24T02:35:42.177Z,4.47
2023-02-24T02:36:42.120Z,4.50
2023-02-24T02:37:43.248Z,4.47
2023-02-24T02:38:43.185Z,4.46
2023-02-24T02:39:42.943Z,4.44
2023-02-24T02:40:43.269Z,4.42
2023-02-24T02:41:42.988Z,4.44
2023-02-24T02:42:43.007Z,4.44
2023-02-24T02:43:43.248Z,4.43
2023-02-24T02:44:43.403Z,4.43
2023-02-24T02:45:43.468Z,4.44
2023-02-24T02:46:45.053Z,4.44
2023-02-24T02:47:44.407Z,4.42
2023-02-24T02:48:44.811Z,4.40
2023-02-24T02:49:45.522Z,4.40
2023-02-24T02:50:46.103Z,4.40
2023-02-24T02:51:45.089Z,4.39
2023-02-24T02:52:45.325Z,4.36
2023-02-24T02:53:45.709Z,4.29
2023-02-24T02:54:46.034Z,4.26
2023-02-24T02:55:46.130Z,4.25
2023-02-24T02:56:46.939Z,4.21
2023-02-24T02:57:46.607Z,4.19
2023-02-24T02:58:46.671Z,4.15
2023-02-24T02:59:47.142Z,4.14
2023-02-24T03:00:47.421Z,4.12
2023-02-24T03:01:47.576Z,4.12
2023-02-24T03:02:47.662Z,4.07
2023-02-24T03:03:49.207Z,4.08
2023-02-24T03:04:48.406Z,4.07
2023-02-24T03:05:50.224Z,4.06
2023-02-24T03:06:49.310Z,4.04
2023-02-24T03:07:50.231Z,4.04
2023-02-24T03:08:50.852Z,4.03
2023-02-24T03:09:50.901Z,4.03
2023-02-24T03:10:50.200Z,4.01
2023-02-24T03:11:50.586Z,4.03
2023-02-24T03:12:50.752Z,4.04
2023-02-24T03:13:50.312Z,4.04
2023-02-24T03:14:51.079Z,4.06
2023-02-24T03:15:51.910Z,4.08
2023-02-24T03:16:52.318Z,4.10
2023-02-24T03:17:52.563Z,4.08
2023-02-24T03:18:52.202Z,4.10
2023-02-24T03:19:52.385Z,4.12
2023-02-24T03:20:53.002Z,4.12
2023-02-24T03:21:52.829Z,4.14
2023-02-24T03:22:52.968Z,4.14
2023-02-24T03:23:53.288Z,4.14
2023-02-24T03:24:53.255Z,4.15
2023-02-24T03:25:54.036Z,4.14
2023-02-24T03:26:54.542Z,4.12
2023-02-24T03:27:54.407Z,4.14
2023-02-24T03:28:54.755Z,4.12
2023-02-24T03:29:55.225Z,4.10
2023-02-24T03:30:56.527Z,4.12
2023-02-24T03:31:55.687Z,4.15
2023-02-24T03:32:55.223Z,4.15
2023-02-24T03:33:55.477Z,4.18
2023-02-24T03:34:55.694Z,4.18
2023-02-24T03:35:55.749Z,4.16
2023-02-24T03:36:56.043Z,4.19
2023-02-24T03:37:56.017Z,4.19
2023-02-24T03:38:57.001Z,4.22
2023-02-24T03:39:57.267Z,4.24
2023-02-24T03:40:57.418Z,4.26
2023-02-24T03:41:57.451Z,4.29
2023-02-24T03:42:57.615Z,4.29
2023-02-24T03:43:57.648Z,4.29
2023-02-24T03:44:58.010Z,4.29
2023-02-24T03:45:58.174Z,4.26
2023-02-24T03:46:58.267Z,4.26
2023-02-24T03:47:59.045Z,4.26
2023-02-24T03:48:58.703Z,4.25
2023-02-24T03:49:59.023Z,4.26
2023-02-24T03:50:59.238Z,4.28
2023-02-24T03:51:59.369Z,4.28
2023-02-24T03:52:59.407Z,4.28
2023-02-24T03:53:59.800Z,4.22
2023-02-24T03:54:59.905Z,4.22
2023-02-24T03:56:00.073Z,4.21
2023-02-24T03:57:01.445Z,4.19
2023-02-24T03:58:00.393Z,4.19
2023-02-24T03:59:01.562Z,4.19
2023-02-24T04:00:00.882Z,4.19
2023-02-24T04:01:01.333Z,4.19
2023-02-24T04:02:01.509Z,4.18
2023-02-24T04:03:02.032Z,4.21
2023-02-24T04:04:01.882Z,4.22
2023-02-24T04:05:01.879Z,4.24
2023-02-24T04:06:01.972Z,4.24
2023-02-24T04:07:02.382Z,4.21
2023-02-24T04:08:02.933Z,4.21
2023-02-24T04:09:02.479Z,4.22
2023-02-24T04:10:03.638Z,4.21
2023-02-24T04:11:02.920Z,4.21
2023-02-24T04:12:03.063Z,4.22
2023-02-24T04:13:03.539Z,4.21
2023-02-24T04:14:03.377Z,4.22
2023-02-24T04:15:04.294Z,4.24
2023-02-24T04:16:03.520Z,4.25
2023-02-24T04:17:03.319Z,4.26
2023-02-24T04:18:04.861Z,4.29
2023-02-24T04:19:03.970Z,4.29
2023-02-24T04:20:04.511Z,4.33
2023-02-24T04:21:04.307Z,4.32
2023-02-24T04:22:04.216Z,4.28
2023-02-24T04:23:04.748Z,4.28
2023-02-24T04:24:04.589Z,4.29
2023-02-24T04:25:04.630Z,4.29
2023-02-24T04:26:05.063Z,4.26
2023-02-24T04:27:05.630Z,4.26
2023-02-24T04:28:05.389Z,4.25
2023-02-24T04:29:05.378Z,4.25
2023-02-24T04:30:05.656Z,4.25
2023-02-24T04:31:06.887Z,4.25
2023-02-24T04:32:06.439Z,4.21
2023-02-24T04:33:06.853Z,4.22
2023-02-24T04:34:07.464Z,4.22
2023-02-24T04:35:06.920Z,4.19
2023-02-24T04:36:07.613Z,4.21
2023-02-24T04:37:07.886Z,4.21
2023-02-24T04:38:08.373Z,4.19
2023-02-24T04:39:08.606Z,4.19
2023-02-24T04:40:08.910Z,4.16
2023-02-24T04:41:10.380Z,4.16
2023-02-24T04:42:09.292Z,4.18
2023-02-24T04:43:09.966Z,4.18
2023-02-24T04:44:10.033Z,4.19
2023-02-24T04:45:10.171Z,4.21
2023-02-24T04:46:10.072Z,4.21
2023-02-24T04:47:10.548Z,4.22
2023-02-24T04:48:11.396Z,4.24
2023-02-24T04:49:12.009Z,4.24
2023-02-24T04:50:11.748Z,4.21
2023-02-24T04:51:12.220Z,4.21
2023-02-24T04:52:11.576Z,4.15
2023-02-24T04:53:12.062Z,4.15
2023-02-24T04:54:12.924Z,4.15
2023-02-24T04:55:13.059Z,4.12
2023-02-24T04:56:18.116Z,4.12
2023-02-24T04:57:14.338Z,4.10
2023-02-24T04:58:14.834Z,4.08
2023-02-24T04:59:13.772Z,4.08
2023-02-24T05:00:13.779Z,4.12
2023-02-24T05:01:13.988Z,4.12
2023-02-24T05:02:16.614Z,4.12
2023-02-24T05:03:14.394Z,4.12
2023-02-24T05:04:14.500Z,4.08
2023-02-24T05:05:15.598Z,4.08
2023-02-24T05:06:16.192Z,4.08
2023-02-24T05:07:14.870Z,4.07
2023-02-24T05:08:17.848Z,4.10
2023-02-24T05:09:17.260Z,4.12
2023-02-24T05:10:16.767Z,4.08
2023-02-24T05:11:15.807Z,4.10
2023-02-24T05:12:16.305Z,4.12
2023-02-24T05:13:17.725Z,4.10
2023-02-24T05:14:16.723Z,4.08
2023-02-24T05:15:18.111Z,4.07
2023-02-24T05:16:18.871Z,4.07
2023-02-24T05:17:17.727Z,4.07
2023-02-24T05:18:19.127Z,4.08
2023-02-24T05:19:18.672Z,4.12
2023-02-24T05:20:19.179Z,4.14
2023-02-24T05:21:21.626Z,4.14
2023-02-24T05:22:19.429Z,4.10
2023-02-24T05:23:20.517Z,4.10
2023-02-24T05:24:20.416Z,4.08
2023-02-24T05:25:19.846Z,4.10
2023-02-24T05:26:21.561Z,4.07
2023-02-24T05:27:20.880Z,4.10
2023-02-24T05:28:20.969Z,4.12
2023-02-24T05:29:22.303Z,4.14
2023-02-24T05:30:21.857Z,4.15
2023-02-24T05:31:23.253Z,4.15
2023-02-24T05:32:21.550Z,4.15
2023-02-24T05:33:21.893Z,4.15
2023-02-24T05:34:22.312Z,4.16
2023-02-24T05:35:22.519Z,4.14
2023-02-24T05:36:23.108Z,4.12
2023-02-24T05:37:23.303Z,4.10
2023-02-24T05:38:23.745Z,4.10
2023-02-24T05:39:23.377Z,4.08
2023-02-24T05:40:23.548Z,4.07
2023-02-24T05:41:23.865Z,4.04
2023-02-24T05:42:24.187Z,4.03
2023-02-24T05:43:25.123Z,4.03
2023-02-24T05:44:26.752Z,3.98
2023-02-24T05:45:26.345Z,3.97
2023-02-24T05:46:26.220Z,3.98
2023-02-24T05:47:25.495Z,3.98
2023-02-24T05:48:26.574Z,3.97
2023-02-24T05:49:26.113Z,3.94
2023-02-24T05:50:26.060Z,3.90
2023-02-24T05:51:27.357Z,3.92
2023-02-24T05:52:26.891Z,3.89
2023-02-24T05:53:28.138Z,3.88
2023-02-24T05:54:27.010Z,3.88
2023-02-24T05:55:27.490Z,3.89
2023-02-24T05:56:29.296Z,3.89
2023-02-24T05:57:28.735Z,3.88
2023-02-24T05:58:29.708Z,3.89
2023-02-24T05:59:28.810Z,3.86
2023-02-24T06:00:30.140Z,3.83
2023-02-24T06:01:30.978Z,3.82
2023-02-24T06:02:31.296Z,3.82
2023-02-24T06:03:30.228Z,3.80
2023-02-24T06:04:31.171Z,3.80
2023-02-24T06:05:32.268Z,3.80
2023-02-24T06:06:32.394Z,3.79
2023-02-24T06:07:31.898Z,3.80
2023-02-24T06:08:34.334Z,3.83
2023-02-24T06:09:34.733Z,3.83
2023-02-24T06:10:32.689Z,3.82
2023-02-24T06:11:32.948Z,3.80
2023-02-24T06:12:33.475Z,3.78
2023-02-24T06:13:38.720Z,3.79
2023-02-24T06:14:36.019Z,3.78
2023-02-24T06:15:35.147Z,3.76
2023-02-24T06:16:34.191Z,3.78
2023-02-24T06:17:36.755Z,3.79
2023-02-24T06:18:34.172Z,3.78
2023-02-24T06:19:34.423Z,3.78
2023-02-24T06:20:35.087Z,3.78
2023-02-24T06:21:37.956Z,3.78
2023-02-24T06:22:34.970Z,3.76
2023-02-24T06:23:36.989Z,3.76
2023-02-24T06:24:38.459Z,3.76
2023-02-24T06:25:39.470Z,3.78
2023-02-24T06:26:45.272Z,3.79
2023-02-24T06:27:40.220Z,3.79
2023-02-24T06:28:37.611Z,3.79
2023-02-24T06:29:38.260Z,3.82
2023-02-24T06:30:41.120Z,3.78
2023-02-24T06:31:45.296Z,3.78
2023-02-24T06:32:46.948Z,3.75
2023-02-24T06:33:40.617Z,3.75
2023-02-24T06:34:40.006Z,3.76
2023-02-24T06:35:41.499Z,3.72
2023-02-24T06:36:42.516Z,3.75
2023-02-24T06:37:39.367Z,3.70
2023-02-24T06:38:41.111Z,3.65
2023-02-24T06:39:39.340Z,3.61
2023-02-24T06:40:38.587Z,3.58
2023-02-24T06:41:41.312Z,3.58
2023-02-24T06:42:41.603Z,3.58
2023-02-24T06:43:42.762Z,3.58
2023-02-24T06:44:42.748Z,3.54
2023-02-24T06:45:43.124Z,3.54
2023-02-24T06:46:43.445Z,3.54
2023-02-24T06:47:40.883Z,3.57
2023-02-24T06:48:47.086Z,3.58
2023-02-24T06:49:40.120Z,3.60
2023-02-24T06:50:42.885Z,3.61
2023-02-24T06:51:41.658Z,3.64
2023-02-24T06:52:46.051Z,3.64
2023-02-24T06:53:43.524Z,3.62
2023-02-24T06:54:41.913Z,3.65
2023-02-24T06:55:43.179Z,3.62
2023-02-24T06:56:43.284Z,3.65
2023-02-24T06:57:43.752Z,3.65
2023-02-24T06:58:43.236Z,3.67
2023-02-24T06:59:42.861Z,3.61
2023-02-24T07:00:43.852Z,3.61
2023-02-24T07:01:44.221Z,3.61
2023-02-24T07:02:43.991Z,3.62
2023-02-24T07:03:46.848Z,3.64
2023-02-24T07:04:46.702Z,3.64
2023-02-24T07:05:45.064Z,3.65
2023-02-24T07:06:46.561Z,3.68
2023-02-24T07:07:45.737Z,3.68
2023-02-24T07:08:47.558Z,3.68
2023-02-24T07:09:46.616Z,3.70
2023-02-24T07:10:46.396Z,3.72
2023-02-24T07:11:46.801Z,3.72
2023-02-24T07:12:45.804Z,3.72
2023-02-24T07:13:51.661Z,3.72
2023-02-24T07:14:47.593Z,3.76
2023-02-24T07:15:47.667Z,3.78
2023-02-24T07:16:47.251Z,3.78
2023-02-24T07:17:48.549Z,3.78
2023-02-24T07:18:48.578Z,3.78
2023-02-24T07:19:47.419Z,3.78
2023-02-24T07:20:51.364Z,3.82
2023-02-24T07:21:56.333Z,3.83
2023-02-24T07:22:54.184Z,3.82
2023-02-24T07:24:02.338Z,3.82
2023-02-24T07:24:50.229Z,3.83
2023-02-24T07:25:52.261Z,3.82
2023-02-24T07:26:50.204Z,3.83
2023-02-24T07:27:50.864Z,3.83
2023-02-24T07:28:53.692Z,3.85
2023-02-24T07:29:52.665Z,3.88
2023-02-24T07:30:51.885Z,3.88
2023-02-24T07:31:51.973Z,3.89
2023-02-24T07:32:52.438Z,3.88
2023-02-24T07:33:57.588Z,3.88
2023-02-24T07:34:52.397Z,3.88
2023-02-24T07:35:53.690Z,3.88
2023-02-24T07:38:01.084Z,3.83
2023-02-24T07:38:58.245Z,3.85
2023-02-24T07:39:53.006Z,3.88
2023-02-24T07:40:53.125Z,3.89
2023-02-24T07:41:55.638Z,3.92
2023-02-24T07:42:53.673Z,3.92
2023-02-24T07:43:53.614Z,3.94
2023-02-24T07:44:54.997Z,3.94
2023-02-24T07:45:55.067Z,3.97
2023-02-24T07:46:55.080Z,4.00
2023-02-24T07:47:55.321Z,4.03
2023-02-24T07:48:54.699Z,4.04
2023-02-24T07:49:54.571Z,4.06
2023-02-24T07:50:55.983Z,4.07
2023-02-24T07:51:56.397Z,4.06
2023-02-24T07:52:55.884Z,4.04
2023-02-24T07:53:55.964Z,4.07
2023-02-24T07:54:56.488Z,4.07
2023-02-24T07:55:56.980Z,4.08
2023-02-24T07:56:57.279Z,4.08
2023-02-24T07:57:57.645Z,4.10
2023-02-24T07:59:04.801Z,4.14
2023-02-24T07:59:59.252Z,4.15
2023-02-24T08:01:00.273Z,4.18
2023-02-24T08:01:57.944Z,4.21
2023-02-24T08:02:58.693Z,4.22
2023-02-24T08:03:59.327Z,4.21
2023-02-24T08:04:59.112Z,4.24
2023-02-24T08:06:01.761Z,4.28
2023-02-24T08:06:59.696Z,4.26
2023-02-24T08:08:00.224Z,4.24
2023-02-24T08:09:02.096Z,4.22
2023-02-24T08:10:01.440Z,4.25
2023-02-24T08:11:00.296Z,4.25
2023-02-24T08:12:01.034Z,4.25
2023-02-24T08:13:01.542Z,4.25
2023-02-24T08:14:01.305Z,4.26
2023-02-24T08:15:12.140Z,4.25
2023-02-24T08:16:05.544Z,4.25
2023-02-24T08:17:11.472Z,4.26
2023-02-24T08:18:05.993Z,4.25
2023-02-24T08:19:02.933Z,4.19
2023-02-24T08:20:14.944Z,4.12
2023-02-24T08:22:21.344Z,4.14
2023-02-24T08:23:03.393Z,4.15
2023-02-24T08:24:05.274Z,4.16
2023-02-24T08:25:04.667Z,4.19
2023-02-24T08:26:03.323Z,4.21
2023-02-24T08:27:13.356Z,4.18
2023-02-24T08:28:08.807Z,4.16
2023-02-24T08:29:05.650Z,4.18
2023-02-24T08:30:05.051Z,4.18
2023-02-24T08:31:15.821Z,4.16
2023-02-24T08:32:10.832Z,4.18
2023-02-24T08:33:06.970Z,4.16
2023-02-24T08:34:11.613Z,4.12
2023-02-24T08:35:05.957Z,4.08
2023-02-24T08:36:06.065Z,4.10
2023-02-24T08:37:08.695Z,4.15
2023-02-24T08:38:12.908Z,4.15
2023-02-24T08:39:07.643Z,4.16
2023-02-24T08:40:07.926Z,4.19
2023-02-24T08:41:09.027Z,4.21
2023-02-24T08:42:18.296Z,4.21
2023-02-24T08:43:11.955Z,4.22
2023-02-24T08:44:08.519Z,4.22
2023-02-24T08:46:13.810Z,4.29
2023-02-24T08:47:15.363Z,4.26
2023-02-24T08:48:09.825Z,4.28
2023-02-24T08:49:09.522Z,4.26
2023-02-24T08:50:10.049Z,4.21
2023-02-24T08:51:24.677Z,4.21
2023-02-24T08:52:14.753Z,4.21
2023-02-24T08:53:14.403Z,4.21
2023-02-24T08:54:12.270Z,4.18
2023-02-24T08:55:11.673Z,4.19
2023-02-24T08:56:15.631Z,4.22
2023-02-24T08:57:12.330Z,4.24
2023-02-24T08:58:14.226Z,4.24
2023-02-24T08:59:13.101Z,4.24
2023-02-24T09:00:12.752Z,4.21
2023-02-24T09:01:27.739Z,4.22
2023-02-24T09:02:12.803Z,4.25
2023-02-24T09:03:18.748Z,4.28
2023-02-24T09:04:16.650Z,4.26
2023-02-24T09:05:14.723Z,4.26
2023-02-24T09:09:57.361Z,4.29
2023-02-24T09:11:02.455Z,4.32
2023-02-24T09:11:59.779Z,4.33
2023-02-24T09:12:56.469Z,4.33
2023-02-24T09:13:57.233Z,4.33
2023-02-24T09:15:02.910Z,4.34
2023-02-24T09:15:56.295Z,4.36
2023-02-24T09:18:15.322Z,4.40
2023-02-24T09:19:00.663Z,4.40
2023-02-24T09:20:06.749Z,4.43
2023-02-24T09:20:58.837Z,4.43
2023-02-24T09:21:57.850Z,4.42
2023-02-24T09:23:02.499Z,4.42
2023-02-24T09:23:59.879Z,4.40
2023-02-24T09:24:59.346Z,4.42
2023-02-24T09:26:04.838Z,4.40
2023-02-24T09:26:59.506Z,4.40
2023-02-24T09:28:00.235Z,4.42
2023-02-24T09:29:00.415Z,4.44
2023-02-24T09:30:03.048Z,4.43
2023-02-24T09:31:00.778Z,4.43
2023-02-24T09:32:03.199Z,4.43
2023-02-24T09:33:01.559Z,4.46
2023-02-24T09:34:10.621Z,4.46
2023-02-24T09:35:05.662Z,4.47
2023-02-24T09:36:02.954Z,4.50
2023-02-24T09:37:03.669Z,4.47
2023-02-24T09:38:09.154Z,4.50
2023-02-24T09:39:01.982Z,4.50
2023-02-24T09:40:04.873Z,4.46
2023-02-24T09:41:18.087Z,4.46
2023-02-24T09:42:06.250Z,4.46
2023-02-24T09:43:07.136Z,4.50
2023-02-24T09:44:08.133Z,4.51
2023-02-24T09:45:02.640Z,4.52
2023-02-24T09:46:07.543Z,4.52
2023-02-24T09:47:02.920Z,4.51
2023-02-24T09:48:06.107Z,4.42
2023-02-24T09:49:07.340Z,4.43
2023-02-24T09:50:04.861Z,4.43
2023-02-24T09:51:05.226Z,4.44
2023-02-24T09:52:04.084Z,4.43
2023-02-24T09:53:11.091Z,4.43
2023-02-24T09:54:04.416Z,4.43
2023-02-24T09:55:07.273Z,4.46
2023-02-24T09:56:06.417Z,4.43
2023-02-24T09:57:05.652Z,4.44
2023-02-24T09:58:07.976Z,4.44
2023-02-24T09:59:06.021Z,4.43
2023-02-24T10:00:08.521Z,4.46
2023-02-24T10:01:10.068Z,4.44
2023-02-24T10:02:06.848Z,4.44
2023-02-24T10:03:06.724Z,4.36
2023-02-24T10:04:19.561Z,4.36
2023-02-24T10:08:01.206Z,4.33
2023-02-24T10:08:42.141Z,4.34
2023-02-24T10:09:49.811Z,4.29
2023-02-24T10:10:44.336Z,4.26
2023-02-24T10:11:42.949Z,4.26
2023-02-24T10:12:43.102Z,4.26
2023-02-24T10:13:43.210Z,4.24
2023-02-24T10:14:50.896Z,4.22
2023-02-24T10:15:45.076Z,4.16
2023-02-24T10:16:48.598Z,4.14
2023-02-24T10:17:50.768Z,4.10
2023-02-24T10:18:47.906Z,4.10
2023-02-24T10:19:50.641Z,4.10
2023-02-24T10:20:53.776Z,4.07
2023-02-24T10:26:06.602Z,4.08
2023-02-24T10:27:01.195Z,4.12
2023-02-24T10:27:51.848Z,4.14
2023-02-24T10:28:52.456Z,4.12
2023-02-24T10:29:49.014Z,4.06
2023-02-24T10:30:50.696Z,4.00
2023-02-24T10:31:49.362Z,3.96
2023-02-24T10:37:12.028Z,3.90
2023-02-24T10:37:50.395Z,3.89
2023-02-24T10:39:51.899Z,3.90
2023-02-24T10:40:50.884Z,3.88
2023-02-24T10:41:50.506Z,3.88
2023-02-24T10:42:53.797Z,3.86
2023-02-24T10:43:53.694Z,3.82
2023-02-24T10:45:01.100Z,3.80
2023-02-24T10:45:53.317Z,3.83
2023-02-24T10:46:51.993Z,3.82
2023-02-24T10:47:52.184Z,3.79
2023-02-24T10:49:01.998Z,3.78
2023-02-24T10:49:52.888Z,3.82
2023-02-24T10:50:56.369Z,3.78
2023-02-24T10:51:52.439Z,3.72
2023-02-24T10:52:54.002Z,3.70
2023-02-24T10:53:54.688Z,3.71
2023-02-24T10:54:55.053Z,3.70
2023-02-24T10:55:53.566Z,3.71
2023-02-24T10:56:54.408Z,3.71
2023-02-24T10:57:59.238Z,3.71
2023-02-24T10:58:57.303Z,3.76
2023-02-24T10:59:57.139Z,3.75
2023-02-24T11:00:55.699Z,3.71
2023-02-24T11:01:55.995Z,3.62
2023-02-24T11:02:55.908Z,3.58
2023-02-24T11:03:57.276Z,3.57
2023-02-24T11:04:57.678Z,3.57
2023-02-24T11:05:57.276Z,3.60
2023-02-24T11:06:57.662Z,3.60
2023-02-24T11:07:57.223Z,3.58
2023-02-24T11:08:58.886Z,3.57
2023-02-24T11:09:59.028Z,3.54
2023-02-24T11:10:58.209Z,3.54
2023-02-24T11:11:58.777Z,3.53
2023-02-24T11:13:08.950Z,3.50
2023-02-24T11:14:00.782Z,3.53
2023-02-24T11:15:03.727Z,3.58
2023-02-24T11:15:59.096Z,3.62
2023-02-24T11:16:59.037Z,3.64
2023-02-24T11:18:01.274Z,3.62
2023-02-24T11:18:59.990Z,3.65
2023-02-24T11:19:59.457Z,3.61
2023-02-24T11:21:02.598Z,3.58
2023-02-24T11:22:07.370Z,3.54
2023-02-24T11:23:00.458Z,3.53
2023-02-24T11:24:05.179Z,3.53
2023-02-24T11:26:57.102Z,3.61
2023-02-24T11:27:41.699Z,3.65
2023-02-24T11:28:41.381Z,3.65
2023-02-24T11:32:15.154Z,3.62
2023-02-24T11:33:09.973Z,3.54
2023-02-24T11:34:09.761Z,3.50
2023-02-24T11:35:10.521Z,3.49
2023-02-24T11:36:10.023Z,3.44
2023-02-24T11:37:11.802Z,3.40
2023-02-24T11:38:11.686Z,3.40
2023-02-24T11:39:20.576Z,3.40
2023-02-24T11:40:12.086Z,3.42
2023-02-24T11:41:31.734Z,3.40
2023-02-24T11:42:16.555Z,3.40
2023-02-24T11:43:16.388Z,3.42
2023-02-24T11:44:15.128Z,3.42
2023-02-24T11:45:13.090Z,3.39
2023-02-24T11:46:13.956Z,3.36
2023-02-24T11:47:15.781Z,3.36
2023-02-24T11:48:27.394Z,3.36
2023-02-24T11:49:15.398Z,3.39
2023-02-24T11:50:15.690Z,3.42
2023-02-24T11:51:18.285Z,3.43
2023-02-24T11:52:17.942Z,3.46
2023-02-24T11:53:15.291Z,3.47
2023-02-24T11:54:16.462Z,3.52
2023-02-24T11:55:18.656Z,3.54
2023-02-24T11:56:17.138Z,3.58
2023-02-24T11:57:16.772Z,3.58
2023-02-24T11:58:17.171Z,3.57
2023-02-24T11:59:18.597Z,3.53
2023-02-24T12:00:18.132Z,3.52
2023-02-24T12:01:18.331Z,3.49
2023-02-24T12:02:19.349Z,3.47
2023-02-24T12:03:18.606Z,3.50
2023-02-24T12:04:28.383Z,3.49
2023-02-24T12:05:18.785Z,3.53
2023-02-24T12:06:19.266Z,3.53
2023-02-24T12:07:19.654Z,3.50
2023-02-24T12:08:19.942Z,3.50
2023-02-24T12:09:19.997Z,3.50
2023-02-24T12:10:21.285Z,3.52
2023-02-24T12:11:20.617Z,3.49
2023-02-24T12:12:19.711Z,3.52
2023-02-24T12:13:21.232Z,3.50
2023-02-24T12:14:21.460Z,3.50
2023-02-24T12:15:21.233Z,3.52
2023-02-24T12:16:21.602Z,3.47
2023-02-24T12:17:25.427Z,3.42
2023-02-24T12:18:21.415Z,3.43
2023-02-24T12:19:22.180Z,3.43
2023-02-24T12:20:22.677Z,3.44
2023-02-24T12:21:23.498Z,3.40
2023-02-24T12:22:24.152Z,3.39
2023-02-24T12:23:23.610Z,3.39
2023-02-24T12:26:05.104Z,3.36
2023-02-24T12:27:11.154Z,3.34
2023-02-24T12:28:05.327Z,3.34
2023-02-24T12:29:05.622Z,3.31
2023-02-24T12:30:10.991Z,3.31
2023-02-24T12:31:09.615Z,3.33
2023-02-24T12:32:06.810Z,3.34
2023-02-24T12:33:06.320Z,3.30
2023-02-24T12:34:10.845Z,3.33
2023-02-24T12:35:09.547Z,3.31
2023-02-24T12:36:08.461Z,3.30
2023-02-24T12:37:08.803Z,3.28
2023-02-24T12:38:09.563Z,3.30
2023-02-24T12:39:10.436Z,3.25
2023-02-24T12:40:15.568Z,3.27
2023-02-24T12:41:10.011Z,3.30
2023-02-24T12:42:10.397Z,3.31
2023-02-24T12:43:10.698Z,3.25
2023-02-24T12:44:10.724Z,3.25
2023-02-24T12:45:11.008Z,3.23
2023-02-24T12:46:13.975Z,3.20
2023-02-24T12:47:10.565Z,3.21
2023-02-24T12:48:11.369Z,3.21
2023-02-24T12:49:11.595Z,3.18
2023-02-24T12:50:12.060Z,3.23
2023-02-24T12:51:11.462Z,3.27
2023-02-24T12:52:12.495Z,3.28
2023-02-24T12:53:11.898Z,3.25
2023-02-24T12:54:13.670Z,3.25
2023-02-24T12:55:13.233Z,3.23
2023-02-24T12:56:12.844Z,3.20
2023-02-24T12:57:12.778Z,3.20
2023-02-24T12:58:13.233Z,3.16
2023-02-24T12:59:15.097Z,3.16
2023-02-24T13:00:16.159Z,3.18
2023-02-24T13:01:15.591Z,3.23
2023-02-24T13:02:15.425Z,3.25
2023-02-24T13:03:15.527Z,3.25
2023-02-24T13:04:17.037Z,3.23
2023-02-24T13:05:16.004Z,3.23
2023-02-24T13:06:16.342Z,3.23
2023-02-24T13:07:16.517Z,3.21
2023-02-24T13:08:16.630Z,3.20
2023-02-24T13:09:16.797Z,3.15
2023-02-24T13:10:16.931Z,3.15
2023-02-24T13:11:17.761Z,3.16
2023-02-24T13:12:17.600Z,3.16
2023-02-24T13:13:16.925Z,3.18
2023-02-24T13:14:19.630Z,3.16
2023-02-24T13:15:25.060Z,3.15
2023-02-24T13:16:17.575Z,3.16
2023-02-24T13:17:19.177Z,3.15
2023-02-24T13:18:18.052Z,3.13
2023-02-24T13:19:19.307Z,3.15
2023-02-24T13:20:21.127Z,3.18
2023-02-24T13:21:19.200Z,3.16
2023-02-24T13:22:19.221Z,3.20
2023-02-24T13:23:19.218Z,3.20
2023-02-24T13:24:21.650Z,3.20
2023-02-24T13:25:19.945Z,3.20
2023-02-24T13:26:23.362Z,3.21
2023-02-24T13:27:23.139Z,3.23
2023-02-24T13:28:21.071Z,3.21
2023-02-24T13:29:21.901Z,3.13
2023-02-24T13:30:22.669Z,3.10
2023-02-24T13:31:22.253Z,3.06
2023-02-24T13:32:22.329Z,3.03
2023-02-24T13:33:23.045Z,3.06
2023-02-24T13:34:22.724Z,3.06
2023-02-24T13:35:23.831Z,3.03
2023-02-24T13:36:35.146Z,3.06
2023-02-24T13:37:58.940Z,3.07
2023-02-24T13:38:57.120Z,3.07
2023-02-24T13:39:59.586Z,3.07
2023-02-24T13:42:58.138Z,3.09
2023-02-24T13:43:57.858Z,3.09
2023-02-24T13:44:58.398Z,3.07
2023-02-24T13:45:58.845Z,3.10
2023-02-24T13:47:00.795Z,3.10
2023-02-24T13:48:11.360Z,3.13
2023-02-24T13:48:59.513Z,3.16
2023-02-24T13:50:00.441Z,3.21